sensor_id;sensor_type;location;lat;lon;timestamp;P1;durP1;ratioP1;P2;durP2;ratioP2
46282;SDS011;32017;43.700;11.820;2023-09-18T00:00:37;8.52;;;3.53;;
46282;SDS011;32017;43.700;11.820;2023-09-18T00:02:58;3.15;;;2.95;;
46282;SDS011;32017;43.700;11.820;2023-09-18T00:05:18;3.75;;;3.55;;
46282;SDS011;32017;43.700;11.820;2023-09-18T00:07:38;4.50;;;4.10;;
46282;SDS011;32017;43.700;11.820;2023-09-18T00:09:58;4.15;;;3.65;;
46282;SDS011;32017;43.700;11.820;2023-09-18T00:12:18;4.07;;;3.90;;
46282;SDS011;32017;43.700;11.820;2023-09-18T00:14:38;5.20;;;4.93;;
46282;SDS011;32017;43.700;11.820;2023-09-18T00:16:58;5.32;;;4.95;;
46282;SDS011;32017;43.700;11.820;2023-09-18T00:19:19;5.47;;;3.83;;
46282;SDS011;32017;43.700;11.820;2023-09-18T00:21:40;4.32;;;4.13;;
46282;SDS011;32017;43.700;11.820;2023-09-18T00:24:00;6.97;;;4.38;;
46282;SDS011;32017;43.700;11.820;2023-09-18T00:26:20;2.80;;;2.70;;
46282;SDS011;32017;43.700;11.820;2023-09-18T00:28:40;3.83;;;3.72;;
46282;SDS011;32017;43.700;11.820;2023-09-18T00:31:00;4.80;;;3.95;;
46282;SDS011;32017;43.700;11.820;2023-09-18T00:33:20;5.40;;;4.30;;
46282;SDS011;32017;43.700;11.820;2023-09-18T00:35:41;3.95;;;3.70;;
46282;SDS011;32017;43.700;11.820;2023-09-18T00:38:05;4.15;;;4.05;;
46282;SDS011;32017;43.700;11.820;2023-09-18T00:40:26;5.28;;;4.85;;
46282;SDS011;32017;43.700;11.820;2023-09-18T00:42:46;4.72;;;4.28;;
46282;SDS011;32017;43.700;11.820;2023-09-18T00:45:07;6.85;;;4.45;;
46282;SDS011;32017;43.700;11.820;2023-09-18T00:47:28;5.57;;;4.68;;
46282;SDS011;32017;43.700;11.820;2023-09-18T00:49:49;5.97;;;5.43;;
46282;SDS011;32017;43.700;11.820;2023-09-18T00:52:10;4.55;;;4.25;;
46282;SDS011;32017;43.700;11.820;2023-09-18T00:54:31;9.05;;;5.50;;
46282;SDS011;32017;43.700;11.820;2023-09-18T00:56:54;4.50;;;4.13;;
46282;SDS011;32017;43.700;11.820;2023-09-18T00:59:14;4.63;;;4.40;;
46282;SDS011;32017;43.700;11.820;2023-09-18T01:01:34;4.18;;;3.90;;
46282;SDS011;32017;43.700;11.820;2023-09-18T01:03:54;4.65;;;4.28;;
46282;SDS011;32017;43.700;11.820;2023-09-18T01:06:15;5.32;;;3.85;;
46282;SDS011;32017;43.700;11.820;2023-09-18T01:08:35;3.55;;;3.35;;
46282;SDS011;32017;43.700;11.820;2023-09-18T01:13:27;4.68;;;4.25;;
46282;SDS011;32017;43.700;11.820;2023-09-18T01:18:54;3.92;;;3.70;;
46282;SDS011;32017;43.700;11.820;2023-09-18T01:21:14;4.47;;;4.03;;
46282;SDS011;32017;43.700;11.820;2023-09-18T01:23:34;5.72;;;4.78;;
46282;SDS011;32017;43.700;11.820;2023-09-18T01:25:54;4.93;;;4.57;;
46282;SDS011;32017;43.700;11.820;2023-09-18T01:28:15;5.50;;;4.25;;
46282;SDS011;32017;43.700;11.820;2023-09-18T01:30:35;6.88;;;4.65;;
46282;SDS011;32017;43.700;11.820;2023-09-18T01:32:57;5.45;;;5.00;;
46282;SDS011;32017;43.700;11.820;2023-09-18T01:35:18;4.35;;;4.10;;
46282;SDS011;32017;43.700;11.820;2023-09-18T01:37:38;5.68;;;4.80;;
46282;SDS011;32017;43.700;11.820;2023-09-18T01:39:59;5.15;;;4.82;;
46282;SDS011;32017;43.700;11.820;2023-09-18T01:42:21;4.80;;;4.70;;
46282;SDS011;32017;43.700;11.820;2023-09-18T01:44:42;4.85;;;4.45;;
46282;SDS011;32017;43.700;11.820;2023-09-18T01:47:03;5.55;;;5.10;;
46282;SDS011;32017;43.700;11.820;2023-09-18T01:49:32;5.68;;;5.38;;
46282;SDS011;32017;43.700;11.820;2023-09-18T01:51:53;9.77;;;4.93;;
46282;SDS011;32017;43.700;11.820;2023-09-18T01:54:14;5.25;;;4.75;;
46282;SDS011;32017;43.700;11.820;2023-09-18T01:56:34;5.18;;;4.82;;
46282;SDS011;32017;43.700;11.820;2023-09-18T01:58:54;4.80;;;4.60;;
46282;SDS011;32017;43.700;11.820;2023-09-18T02:01:14;5.82;;;5.63;;
46282;SDS011;32017;43.700;11.820;2023-09-18T02:03:35;5.15;;;5.05;;
46282;SDS011;32017;43.700;11.820;2023-09-18T02:06:15;5.55;;;5.22;;
46282;SDS011;32017;43.700;11.820;2023-09-18T02:08:36;6.20;;;5.93;;
46282;SDS011;32017;43.700;11.820;2023-09-18T02:10:56;4.85;;;4.68;;
46282;SDS011;32017;43.700;11.820;2023-09-18T02:13:16;5.15;;;4.82;;
46282;SDS011;32017;43.700;11.820;2023-09-18T02:15:37;5.47;;;5.18;;
46282;SDS011;32017;43.700;11.820;2023-09-18T02:17:58;5.60;;;4.78;;
46282;SDS011;32017;43.700;11.820;2023-09-18T02:20:18;7.78;;;4.72;;
46282;SDS011;32017;43.700;11.820;2023-09-18T02:22:38;5.38;;;5.07;;
46282;SDS011;32017;43.700;11.820;2023-09-18T02:25:01;5.15;;;4.88;;
46282;SDS011;32017;43.700;11.820;2023-09-18T02:27:21;7.35;;;5.85;;
46282;SDS011;32017;43.700;11.820;2023-09-18T02:29:42;5.22;;;4.90;;
46282;SDS011;32017;43.700;11.820;2023-09-18T02:32:02;3.42;;;3.22;;
46282;SDS011;32017;43.700;11.820;2023-09-18T02:34:22;4.18;;;3.97;;
46282;SDS011;32017;43.700;11.820;2023-09-18T02:36:42;5.00;;;4.70;;
46282;SDS011;32017;43.700;11.820;2023-09-18T02:39:03;6.78;;;6.13;;
46282;SDS011;32017;43.700;11.820;2023-09-18T02:41:23;4.18;;;4.07;;
46282;SDS011;32017;43.700;11.820;2023-09-18T02:43:43;5.35;;;5.05;;
46282;SDS011;32017;43.700;11.820;2023-09-18T02:46:04;5.00;;;4.80;;
46282;SDS011;32017;43.700;11.820;2023-09-18T02:48:24;5.00;;;4.80;;
46282;SDS011;32017;43.700;11.820;2023-09-18T02:50:44;5.03;;;4.60;;
46282;SDS011;32017;43.700;11.820;2023-09-18T02:53:05;5.68;;;5.18;;
46282;SDS011;32017;43.700;11.820;2023-09-18T02:57:47;4.47;;;4.18;;
46282;SDS011;32017;43.700;11.820;2023-09-18T03:00:08;4.75;;;4.55;;
46282;SDS011;32017;43.700;11.820;2023-09-18T03:02:28;4.75;;;4.05;;
46282;SDS011;32017;43.700;11.820;2023-09-18T03:04:49;4.75;;;4.22;;
46282;SDS011;32017;43.700;11.820;2023-09-18T03:07:12;5.38;;;4.97;;
46282;SDS011;32017;43.700;11.820;2023-09-18T03:11:52;4.90;;;4.60;;
46282;SDS011;32017;43.700;11.820;2023-09-18T03:14:12;6.20;;;5.80;;
46282;SDS011;32017;43.700;11.820;2023-09-18T03:16:32;5.28;;;4.88;;
46282;SDS011;32017;43.700;11.820;2023-09-18T03:18:53;4.80;;;4.65;;
46282;SDS011;32017;43.700;11.820;2023-09-18T03:21:14;7.30;;;4.97;;
46282;SDS011;32017;43.700;11.820;2023-09-18T03:23:34;6.30;;;5.82;;
46282;SDS011;32017;43.700;11.820;2023-09-18T03:25:54;4.90;;;4.70;;
46282;SDS011;32017;43.700;11.820;2023-09-18T03:28:15;5.25;;;5.05;;
46282;SDS011;32017;43.700;11.820;2023-09-18T03:30:35;6.57;;;6.13;;
46282;SDS011;32017;43.700;11.820;2023-09-18T03:32:56;5.43;;;5.22;;
46282;SDS011;32017;43.700;11.820;2023-09-18T03:35:16;5.97;;;5.75;;
46282;SDS011;32017;43.700;11.820;2023-09-18T03:37:38;5.22;;;5.03;;
46282;SDS011;32017;43.700;11.820;2023-09-18T03:39:58;7.75;;;5.85;;
46282;SDS011;32017;43.700;11.820;2023-09-18T03:42:18;5.82;;;5.45;;
46282;SDS011;32017;43.700;11.820;2023-09-18T03:44:39;5.82;;;5.43;;
46282;SDS011;32017;43.700;11.820;2023-09-18T03:46:59;6.35;;;5.95;;
46282;SDS011;32017;43.700;11.820;2023-09-18T03:49:19;6.80;;;6.18;;
46282;SDS011;32017;43.700;11.820;2023-09-18T03:51:40;7.70;;;6.93;;
46282;SDS011;32017;43.700;11.820;2023-09-18T03:54:00;6.28;;;6.03;;
46282;SDS011;32017;43.700;11.820;2023-09-18T03:56:20;5.40;;;5.20;;
46282;SDS011;32017;43.700;11.820;2023-09-18T03:58:41;7.03;;;6.40;;
46282;SDS011;32017;43.700;11.820;2023-09-18T04:01:01;6.25;;;5.85;;
46282;SDS011;32017;43.700;11.820;2023-09-18T04:03:21;6.68;;;6.10;;
46282;SDS011;32017;43.700;11.820;2023-09-18T04:05:41;5.38;;;5.18;;
46282;SDS011;32017;43.700;11.820;2023-09-18T04:08:01;4.85;;;4.57;;
46282;SDS011;32017;43.700;11.820;2023-09-18T04:10:22;5.50;;;5.20;;
46282;SDS011;32017;43.700;11.820;2023-09-18T04:12:42;5.40;;;5.00;;
46282;SDS011;32017;43.700;11.820;2023-09-18T04:15:02;6.93;;;6.22;;
46282;SDS011;32017;43.700;11.820;2023-09-18T04:17:23;6.18;;;5.65;;
46282;SDS011;32017;43.700;11.820;2023-09-18T04:19:43;8.35;;;5.18;;
46282;SDS011;32017;43.700;11.820;2023-09-18T04:22:03;7.70;;;5.35;;
46282;SDS011;32017;43.700;11.820;2023-09-18T04:24:25;5.65;;;5.35;;
46282;SDS011;32017;43.700;11.820;2023-09-18T04:26:45;5.80;;;5.40;;
46282;SDS011;32017;43.700;11.820;2023-09-18T04:29:05;6.97;;;6.60;;
46282;SDS011;32017;43.700;11.820;2023-09-18T04:31:25;5.57;;;4.97;;
46282;SDS011;32017;43.700;11.820;2023-09-18T04:33:46;6.15;;;5.85;;
46282;SDS011;32017;43.700;11.820;2023-09-18T04:36:06;6.85;;;5.75;;
46282;SDS011;32017;43.700;11.820;2023-09-18T04:38:27;5.03;;;4.93;;
46282;SDS011;32017;43.700;11.820;2023-09-18T04:40:47;6.38;;;5.95;;
46282;SDS011;32017;43.700;11.820;2023-09-18T04:43:07;7.78;;;5.53;;
46282;SDS011;32017;43.700;11.820;2023-09-18T04:45:27;6.13;;;5.68;;
46282;SDS011;32017;43.700;11.820;2023-09-18T04:47:47;6.18;;;5.63;;
46282;SDS011;32017;43.700;11.820;2023-09-18T04:50:07;6.82;;;5.35;;
46282;SDS011;32017;43.700;11.820;2023-09-18T04:52:32;5.53;;;5.05;;
46282;SDS011;32017;43.700;11.820;2023-09-18T04:54:52;6.07;;;5.65;;
46282;SDS011;32017;43.700;11.820;2023-09-18T04:57:13;6.40;;;5.97;;
46282;SDS011;32017;43.700;11.820;2023-09-18T04:59:33;7.07;;;6.10;;
46282;SDS011;32017;43.700;11.820;2023-09-18T05:01:54;6.50;;;4.50;;
46282;SDS011;32017;43.700;11.820;2023-09-18T05:04:14;6.05;;;5.53;;
46282;SDS011;32017;43.700;11.820;2023-09-18T05:06:34;5.88;;;5.43;;
46282;SDS011;32017;43.700;11.820;2023-09-18T05:08:54;6.57;;;6.18;;
46282;SDS011;32017;43.700;11.820;2023-09-18T05:11:15;6.18;;;5.90;;
46282;SDS011;32017;43.700;11.820;2023-09-18T05:13:36;6.80;;;6.10;;
46282;SDS011;32017;43.700;11.820;2023-09-18T05:15:56;6.60;;;6.18;;
46282;SDS011;32017;43.700;11.820;2023-09-18T05:18:18;6.50;;;6.23;;
46282;SDS011;32017;43.700;11.820;2023-09-18T05:20:38;6.40;;;6.20;;
46282;SDS011;32017;43.700;11.820;2023-09-18T05:22:58;6.95;;;6.53;;
46282;SDS011;32017;43.700;11.820;2023-09-18T05:25:19;7.18;;;6.68;;
46282;SDS011;32017;43.700;11.820;2023-09-18T05:27:40;7.78;;;7.15;;
46282;SDS011;32017;43.700;11.820;2023-09-18T05:30:03;9.40;;;6.93;;
46282;SDS011;32017;43.700;11.820;2023-09-18T05:32:24;7.18;;;6.25;;
46282;SDS011;32017;43.700;11.820;2023-09-18T05:34:45;7.32;;;6.85;;
46282;SDS011;32017;43.700;11.820;2023-09-18T05:37:05;7.95;;;7.40;;
46282;SDS011;32017;43.700;11.820;2023-09-18T05:39:25;7.32;;;6.57;;
46282;SDS011;32017;43.700;11.820;2023-09-18T05:41:45;7.45;;;7.15;;
46282;SDS011;32017;43.700;11.820;2023-09-18T05:44:05;7.53;;;6.18;;
46282;SDS011;32017;43.700;11.820;2023-09-18T05:46:26;6.95;;;6.57;;
46282;SDS011;32017;43.700;11.820;2023-09-18T05:48:46;6.10;;;5.65;;
46282;SDS011;32017;43.700;11.820;2023-09-18T05:51:07;7.25;;;6.68;;
46282;SDS011;32017;43.700;11.820;2023-09-18T05:53:27;6.32;;;6.10;;
46282;SDS011;32017;43.700;11.820;2023-09-18T05:55:47;8.13;;;7.57;;
46282;SDS011;32017;43.700;11.820;2023-09-18T05:58:07;11.55;;;6.95;;
46282;SDS011;32017;43.700;11.820;2023-09-18T06:00:27;5.88;;;5.47;;
46282;SDS011;32017;43.700;11.820;2023-09-18T06:02:50;8.30;;;6.28;;
46282;SDS011;32017;43.700;11.820;2023-09-18T06:05:13;7.28;;;6.85;;
46282;SDS011;32017;43.700;11.820;2023-09-18T06:07:35;7.40;;;6.88;;
46282;SDS011;32017;43.700;11.820;2023-09-18T06:09:56;6.05;;;5.47;;
46282;SDS011;32017;43.700;11.820;2023-09-18T06:12:17;6.80;;;5.22;;
46282;SDS011;32017;43.700;11.820;2023-09-18T06:14:37;7.32;;;6.75;;
46282;SDS011;32017;43.700;11.820;2023-09-18T06:16:57;7.53;;;7.03;;
46282;SDS011;32017;43.700;11.820;2023-09-18T06:19:17;6.90;;;6.43;;
46282;SDS011;32017;43.700;11.820;2023-09-18T06:21:37;8.07;;;7.57;;
46282;SDS011;32017;43.700;11.820;2023-09-18T06:23:57;5.70;;;5.60;;
46282;SDS011;32017;43.700;11.820;2023-09-18T06:26:17;7.45;;;6.75;;
46282;SDS011;32017;43.700;11.820;2023-09-18T06:28:38;7.60;;;7.20;;
46282;SDS011;32017;43.700;11.820;2023-09-18T06:30:58;6.93;;;6.35;;
46282;SDS011;32017;43.700;11.820;2023-09-18T06:33:18;6.43;;;5.85;;
46282;SDS011;32017;43.700;11.820;2023-09-18T06:35:38;6.93;;;6.38;;
46282;SDS011;32017;43.700;11.820;2023-09-18T06:37:59;6.55;;;6.13;;
46282;SDS011;32017;43.700;11.820;2023-09-18T06:40:19;5.72;;;5.43;;
46282;SDS011;32017;43.700;11.820;2023-09-18T06:42:39;5.97;;;5.63;;
46282;SDS011;32017;43.700;11.820;2023-09-18T06:44:59;7.05;;;6.53;;
46282;SDS011;32017;43.700;11.820;2023-09-18T06:47:20;6.25;;;5.97;;
46282;SDS011;32017;43.700;11.820;2023-09-18T06:49:41;6.07;;;5.57;;
46282;SDS011;32017;43.700;11.820;2023-09-18T06:52:01;8.88;;;6.25;;
46282;SDS011;32017;43.700;11.820;2023-09-18T06:54:23;6.25;;;5.90;;
46282;SDS011;32017;43.700;11.820;2023-09-18T06:56:43;6.55;;;5.95;;
46282;SDS011;32017;43.700;11.820;2023-09-18T06:59:03;7.13;;;5.13;;
46282;SDS011;32017;43.700;11.820;2023-09-18T07:01:23;7.15;;;6.50;;
46282;SDS011;32017;43.700;11.820;2023-09-18T07:03:48;5.85;;;5.45;;
46282;SDS011;32017;43.700;11.820;2023-09-18T07:06:09;8.27;;;5.80;;
46282;SDS011;32017;43.700;11.820;2023-09-18T07:08:29;6.22;;;5.82;;
46282;SDS011;32017;43.700;11.820;2023-09-18T07:10:50;7.28;;;5.35;;
46282;SDS011;32017;43.700;11.820;2023-09-18T07:13:11;5.35;;;4.95;;
46282;SDS011;32017;43.700;11.820;2023-09-18T07:15:31;6.00;;;5.57;;
46282;SDS011;32017;43.700;11.820;2023-09-18T07:17:51;5.93;;;4.70;;
46282;SDS011;32017;43.700;11.820;2023-09-18T07:20:11;7.63;;;5.07;;
46282;SDS011;32017;43.700;11.820;2023-09-18T07:22:35;5.80;;;4.68;;
46282;SDS011;32017;43.700;11.820;2023-09-18T07:24:55;8.85;;;5.43;;
46282;SDS011;32017;43.700;11.820;2023-09-18T07:27:15;6.00;;;5.13;;
46282;SDS011;32017;43.700;11.820;2023-09-18T07:29:35;5.05;;;4.80;;
46282;SDS011;32017;43.700;11.820;2023-09-18T07:31:55;8.00;;;5.50;;
46282;SDS011;32017;43.700;11.820;2023-09-18T07:34:15;5.53;;;5.05;;
46282;SDS011;32017;43.700;11.820;2023-09-18T07:36:36;5.65;;;3.90;;
46282;SDS011;32017;43.700;11.820;2023-09-18T07:38:56;4.68;;;4.40;;
46282;SDS011;32017;43.700;11.820;2023-09-18T07:41:17;8.13;;;4.07;;
46282;SDS011;32017;43.700;11.820;2023-09-18T07:43:38;5.65;;;3.85;;
46282;SDS011;32017;43.700;11.820;2023-09-18T07:45:59;4.38;;;3.97;;
46282;SDS011;32017;43.700;11.820;2023-09-18T07:48:22;4.68;;;4.30;;
46282;SDS011;32017;43.700;11.820;2023-09-18T07:50:43;5.15;;;3.22;;
46282;SDS011;32017;43.700;11.820;2023-09-18T07:53:04;6.30;;;4.25;;
46282;SDS011;32017;43.700;11.820;2023-09-18T07:55:24;3.90;;;3.63;;
46282;SDS011;32017;43.700;11.820;2023-09-18T07:57:45;5.55;;;4.85;;
46282;SDS011;32017;43.700;11.820;2023-09-18T08:00:07;11.03;;;4.87;;
46282;SDS011;32017;43.700;11.820;2023-09-18T08:02:31;6.15;;;4.72;;
46282;SDS011;32017;43.700;11.820;2023-09-18T08:04:51;4.28;;;4.03;;
46282;SDS011;32017;43.700;11.820;2023-09-18T08:07:12;4.72;;;4.53;;
46282;SDS011;32017;43.700;11.820;2023-09-18T08:09:32;4.85;;;4.55;;
46282;SDS011;32017;43.700;11.820;2023-09-18T08:11:56;8.43;;;5.03;;
46282;SDS011;32017;43.700;11.820;2023-09-18T08:14:16;4.75;;;4.30;;
46282;SDS011;32017;43.700;11.820;2023-09-18T08:16:40;4.80;;;4.38;;
46282;SDS011;32017;43.700;11.820;2023-09-18T08:19:03;4.82;;;4.53;;
46282;SDS011;32017;43.700;11.820;2023-09-18T08:21:23;4.30;;;4.20;;
46282;SDS011;32017;43.700;11.820;2023-09-18T08:23:43;9.65;;;4.03;;
46282;SDS011;32017;43.700;11.820;2023-09-18T08:26:04;5.22;;;3.35;;
46282;SDS011;32017;43.700;11.820;2023-09-18T08:28:24;3.67;;;3.35;;
46282;SDS011;32017;43.700;11.820;2023-09-18T08:30:44;2.58;;;2.47;;
46282;SDS011;32017;43.700;11.820;2023-09-18T08:33:06;3.20;;;3.10;;
46282;SDS011;32017;43.700;11.820;2023-09-18T08:35:26;3.38;;;3.03;;
46282;SDS011;32017;43.700;11.820;2023-09-18T08:37:48;4.22;;;2.28;;
46282;SDS011;32017;43.700;11.820;2023-09-18T08:40:12;2.38;;;2.25;;
46282;SDS011;32017;43.700;11.820;2023-09-18T08:42:33;4.50;;;2.78;;
46282;SDS011;32017;43.700;11.820;2023-09-18T08:44:54;3.28;;;3.05;;
46282;SDS011;32017;43.700;11.820;2023-09-18T08:47:18;5.25;;;2.85;;
46282;SDS011;32017;43.700;11.820;2023-09-18T08:49:38;2.55;;;2.45;;
46282;SDS011;32017;43.700;11.820;2023-09-18T08:52:00;3.78;;;2.88;;
46282;SDS011;32017;43.700;11.820;2023-09-18T08:54:21;2.60;;;1.95;;
46282;SDS011;32017;43.700;11.820;2023-09-18T08:56:43;3.75;;;2.08;;
46282;SDS011;32017;43.700;11.820;2023-09-18T08:59:03;8.88;;;2.08;;
46282;SDS011;32017;43.700;11.820;2023-09-18T09:01:23;5.45;;;2.10;;
46282;SDS011;32017;43.700;11.820;2023-09-18T09:03:43;2.30;;;2.10;;
46282;SDS011;32017;43.700;11.820;2023-09-18T09:06:08;4.75;;;1.95;;
46282;SDS011;32017;43.700;11.820;2023-09-18T09:08:28;1.38;;;1.10;;
46282;SDS011;32017;43.700;11.820;2023-09-18T09:10:49;3.22;;;1.55;;
46282;SDS011;32017;43.700;11.820;2023-09-18T09:13:10;2.55;;;1.40;;
46282;SDS011;32017;43.700;11.820;2023-09-18T09:15:46;2.35;;;1.80;;
46282;SDS011;32017;43.700;11.820;2023-09-18T09:18:08;1.23;;;1.00;;
46282;SDS011;32017;43.700;11.820;2023-09-18T09:20:29;4.70;;;1.02;;
46282;SDS011;32017;43.700;11.820;2023-09-18T09:22:49;1.48;;;1.30;;
46282;SDS011;32017;43.700;11.820;2023-09-18T09:25:21;7.85;;;1.17;;
46282;SDS011;32017;43.700;11.820;2023-09-18T09:27:45;6.05;;;1.35;;
46282;SDS011;32017;43.700;11.820;2023-09-18T09:30:05;3.05;;;1.10;;
46282;SDS011;32017;43.700;11.820;2023-09-18T09:32:27;2.38;;;1.52;;
46282;SDS011;32017;43.700;11.820;2023-09-18T09:34:51;1.88;;;1.77;;
46282;SDS011;32017;43.700;11.820;2023-09-18T09:37:19;3.53;;;0.80;;
46282;SDS011;32017;43.700;11.820;2023-09-18T09:39:49;2.55;;;1.20;;
46282;SDS011;32017;43.700;11.820;2023-09-18T09:42:10;4.40;;;0.90;;
46282;SDS011;32017;43.700;11.820;2023-09-18T09:44:33;3.30;;;0.90;;
46282;SDS011;32017;43.700;11.820;2023-09-18T09:46:54;4.15;;;1.13;;
46282;SDS011;32017;43.700;11.820;2023-09-18T09:49:14;3.28;;;0.80;;
46282;SDS011;32017;43.700;11.820;2023-09-18T09:51:37;1.48;;;0.70;;
46282;SDS011;32017;43.700;11.820;2023-09-18T09:53:57;3.55;;;0.80;;
46282;SDS011;32017;43.700;11.820;2023-09-18T09:56:18;0.77;;;0.77;;
46282;SDS011;32017;43.700;11.820;2023-09-18T09:58:38;1.00;;;0.90;;
46282;SDS011;32017;43.700;11.820;2023-09-18T10:01:03;0.70;;;0.70;;
46282;SDS011;32017;43.700;11.820;2023-09-18T10:03:28;0.82;;;0.82;;
46282;SDS011;32017;43.700;11.820;2023-09-18T10:05:51;3.00;;;1.00;;
46282;SDS011;32017;43.700;11.820;2023-09-18T10:08:16;2.35;;;1.08;;
46282;SDS011;32017;43.700;11.820;2023-09-18T10:10:51;1.45;;;0.80;;
46282;SDS011;32017;43.700;11.820;2023-09-18T10:13:15;6.13;;;1.00;;
46282;SDS011;32017;43.700;11.820;2023-09-18T10:15:38;2.00;;;0.80;;
46282;SDS011;32017;43.700;11.820;2023-09-18T10:18:02;2.40;;;1.00;;
46282;SDS011;32017;43.700;11.820;2023-09-18T10:20:23;2.00;;;0.73;;
46282;SDS011;32017;43.700;11.820;2023-09-18T10:22:47;1.58;;;1.15;;
46282;SDS011;32017;43.700;11.820;2023-09-18T10:25:18;1.17;;;0.75;;
46282;SDS011;32017;43.700;11.820;2023-09-18T10:27:41;1.58;;;0.98;;
46282;SDS011;32017;43.700;11.820;2023-09-18T10:30:03;3.35;;;0.80;;
46282;SDS011;32017;43.700;11.820;2023-09-18T10:32:24;1.42;;;0.80;;
46282;SDS011;32017;43.700;11.820;2023-09-18T10:34:47;3.80;;;1.02;;
46282;SDS011;32017;43.700;11.820;2023-09-18T10:37:08;1.00;;;0.90;;
46282;SDS011;32017;43.700;11.820;2023-09-18T10:39:31;2.20;;;0.90;;
46282;SDS011;32017;43.700;11.820;2023-09-18T10:41:54;1.70;;;0.80;;
46282;SDS011;32017;43.700;11.820;2023-09-18T10:44:16;5.00;;;0.80;;
46282;SDS011;32017;43.700;11.820;2023-09-18T10:46:37;1.50;;;1.05;;
46282;SDS011;32017;43.700;11.820;2023-09-18T10:48:58;1.17;;;1.05;;
46282;SDS011;32017;43.700;11.820;2023-09-18T10:51:21;1.55;;;0.85;;
46282;SDS011;32017;43.700;11.820;2023-09-18T10:53:41;0.85;;;0.85;;
46282;SDS011;32017;43.700;11.820;2023-09-18T10:56:02;1.10;;;0.90;;
46282;SDS011;32017;43.700;11.820;2023-09-18T10:58:25;2.35;;;1.05;;
46282;SDS011;32017;43.700;11.820;2023-09-18T11:00:47;2.22;;;1.15;;
46282;SDS011;32017;43.700;11.820;2023-09-18T11:05:36;1.75;;;1.00;;
46282;SDS011;32017;43.700;11.820;2023-09-18T11:13:42;3.65;;;0.80;;
46282;SDS011;32017;43.700;11.820;2023-09-18T11:18:47;3.72;;;1.02;;
46282;SDS011;32017;43.700;11.820;2023-09-18T11:21:11;2.30;;;1.00;;
46282;SDS011;32017;43.700;11.820;2023-09-18T11:23:35;3.38;;;0.90;;
46282;SDS011;32017;43.700;11.820;2023-09-18T11:26:06;2.13;;;0.80;;
46282;SDS011;32017;43.700;11.820;2023-09-18T11:28:27;1.63;;;0.85;;
46282;SDS011;32017;43.700;11.820;2023-09-18T11:30:54;3.13;;;1.25;;
46282;SDS011;32017;43.700;11.820;2023-09-18T11:36:12;5.00;;;1.20;;
46282;SDS011;32017;43.700;11.820;2023-09-18T11:38:34;3.78;;;0.98;;
46282;SDS011;32017;43.700;11.820;2023-09-18T11:40:55;8.93;;;1.00;;
46282;SDS011;32017;43.700;11.820;2023-09-18T11:45:48;6.15;;;1.33;;
46282;SDS011;32017;43.700;11.820;2023-09-18T11:48:09;5.57;;;1.05;;
46282;SDS011;32017;43.700;11.820;2023-09-18T11:50:31;4.07;;;1.40;;
46282;SDS011;32017;43.700;11.820;2023-09-18T11:52:52;4.30;;;0.90;;
46282;SDS011;32017;43.700;11.820;2023-09-18T11:55:13;8.65;;;1.27;;
46282;SDS011;32017;43.700;11.820;2023-09-18T11:57:36;3.75;;;1.98;;
46282;SDS011;32017;43.700;11.820;2023-09-18T11:59:57;4.55;;;0.90;;
46282;SDS011;32017;43.700;11.820;2023-09-18T12:02:31;3.38;;;1.23;;
46282;SDS011;32017;43.700;11.820;2023-09-18T12:04:55;3.55;;;1.10;;
46282;SDS011;32017;43.700;11.820;2023-09-18T12:07:16;7.80;;;1.38;;
46282;SDS011;32017;43.700;11.820;2023-09-18T12:12:01;6.25;;;1.58;;
46282;SDS011;32017;43.700;11.820;2023-09-18T12:14:24;6.35;;;1.10;;
46282;SDS011;32017;43.700;11.820;2023-09-18T12:16:44;3.60;;;0.98;;
46282;SDS011;32017;43.700;11.820;2023-09-18T12:19:04;5.70;;;1.85;;
46282;SDS011;32017;43.700;11.820;2023-09-18T12:21:25;7.95;;;1.25;;
46282;SDS011;32017;43.700;11.820;2023-09-18T12:23:46;3.08;;;1.35;;
46282;SDS011;32017;43.700;11.820;2023-09-18T12:26:06;5.28;;;1.10;;
46282;SDS011;32017;43.700;11.820;2023-09-18T12:28:27;3.03;;;1.20;;
46282;SDS011;32017;43.700;11.820;2023-09-18T12:30:48;4.97;;;1.10;;
46282;SDS011;32017;43.700;11.820;2023-09-18T12:33:10;5.90;;;1.10;;
46282;SDS011;32017;43.700;11.820;2023-09-18T12:35:30;4.28;;;1.20;;
46282;SDS011;32017;43.700;11.820;2023-09-18T12:37:50;5.47;;;1.23;;
46282;SDS011;32017;43.700;11.820;2023-09-18T12:40:21;3.97;;;1.00;;
46282;SDS011;32017;43.700;11.820;2023-09-18T12:42:48;1.63;;;0.90;;
46282;SDS011;32017;43.700;11.820;2023-09-18T12:45:09;3.58;;;1.08;;
46282;SDS011;32017;43.700;11.820;2023-09-18T12:47:31;1.15;;;0.90;;
46282;SDS011;32017;43.700;11.820;2023-09-18T12:49:51;7.32;;;2.30;;
46282;SDS011;32017;43.700;11.820;2023-09-18T12:52:10;2.78;;;1.10;;
46282;SDS011;32017;43.700;11.820;2023-09-18T12:54:37;5.20;;;1.73;;
46282;SDS011;32017;43.700;11.820;2023-09-18T12:57:02;4.30;;;1.00;;
46282;SDS011;32017;43.700;11.820;2023-09-18T12:59:30;5.85;;;1.50;;
46282;SDS011;32017;43.700;11.820;2023-09-18T13:01:50;1.58;;;0.90;;
46282;SDS011;32017;43.700;11.820;2023-09-18T13:04:11;2.83;;;1.17;;
46282;SDS011;32017;43.700;11.820;2023-09-18T13:06:32;5.25;;;2.05;;
46282;SDS011;32017;43.700;11.820;2023-09-18T13:08:52;4.32;;;0.90;;
46282;SDS011;32017;43.700;11.820;2023-09-18T13:11:13;5.93;;;1.23;;
46282;SDS011;32017;43.700;11.820;2023-09-18T13:13:36;9.30;;;1.38;;
46282;SDS011;32017;43.700;11.820;2023-09-18T13:15:59;3.28;;;1.00;;
46282;SDS011;32017;43.700;11.820;2023-09-18T13:18:23;4.60;;;1.13;;
46282;SDS011;32017;43.700;11.820;2023-09-18T13:20:51;3.15;;;0.90;;
46282;SDS011;32017;43.700;11.820;2023-09-18T13:23:11;3.60;;;1.00;;
46282;SDS011;32017;43.700;11.820;2023-09-18T13:25:33;3.72;;;1.23;;
46282;SDS011;32017;43.700;11.820;2023-09-18T13:27:56;9.90;;;1.27;;
46282;SDS011;32017;43.700;11.820;2023-09-18T13:30:17;4.18;;;0.98;;
46282;SDS011;32017;43.700;11.820;2023-09-18T13:32:37;4.68;;;1.65;;
46282;SDS011;32017;43.700;11.820;2023-09-18T13:35:00;3.17;;;1.38;;
46282;SDS011;32017;43.700;11.820;2023-09-18T13:49:50;5.20;;;1.15;;
46282;SDS011;32017;43.700;11.820;2023-09-18T13:56:51;2.78;;;1.00;;
46282;SDS011;32017;43.700;11.820;2023-09-18T13:59:16;7.82;;;1.10;;
46282;SDS011;32017;43.700;11.820;2023-09-18T14:03:42;1.75;;;0.70;;
46282;SDS011;32017;43.700;11.820;2023-09-18T14:10:31;6.88;;;0.90;;
46282;SDS011;32017;43.700;11.820;2023-09-18T14:12:33;3.40;;;0.90;;
46282;SDS011;32017;43.700;11.820;2023-09-18T14:14:34;6.72;;;1.10;;
46282;SDS011;32017;43.700;11.820;2023-09-18T14:16:36;2.63;;;0.98;;
46282;SDS011;32017;43.700;11.820;2023-09-18T14:18:38;3.58;;;1.02;;
46282;SDS011;32017;43.700;11.820;2023-09-18T14:20:40;2.80;;;1.20;;
46282;SDS011;32017;43.700;11.820;2023-09-18T14:22:42;3.88;;;0.90;;
46282;SDS011;32017;43.700;11.820;2023-09-18T14:24:44;5.78;;;1.55;;
46282;SDS011;32017;43.700;11.820;2023-09-18T14:26:46;5.32;;;1.15;;
46282;SDS011;32017;43.700;11.820;2023-09-18T14:28:47;6.15;;;1.35;;
46282;SDS011;32017;43.700;11.820;2023-09-18T14:30:49;10.73;;;1.05;;
46282;SDS011;32017;43.700;11.820;2023-09-18T14:32:51;6.70;;;1.05;;
46282;SDS011;32017;43.700;11.820;2023-09-18T14:34:52;3.47;;;1.15;;
46282;SDS011;32017;43.700;11.820;2023-09-18T14:36:54;4.05;;;1.20;;
46282;SDS011;32017;43.700;11.820;2023-09-18T14:38:55;8.07;;;1.00;;
46282;SDS011;32017;43.700;11.820;2023-09-18T14:40:59;5.95;;;1.52;;
46282;SDS011;32017;43.700;11.820;2023-09-18T14:43:04;4.05;;;0.98;;
46282;SDS011;32017;43.700;11.820;2023-09-18T14:45:06;7.82;;;1.05;;